sensor_id;sensor_type;location;lat;lon;timestamp;pressure;altitude;pressure_sealevel;temperature;humidity
44839;BME280;30576;42.098;24.876;2023-05-19T00:00:01;99696.13;;;15.13;71.17
44839;BME280;30576;42.098;24.876;2023-05-19T00:02:28;99675.63;;;15.16;70.36
44839;BME280;30576;42.098;24.876;2023-05-19T00:05:01;99672.91;;;15.18;69.75
44839;BME280;30576;42.098;24.876;2023-05-19T00:07:30;99695.66;;;15.27;70.33
44839;BME280;30576;42.098;24.876;2023-05-19T00:09:56;99694.28;;;15.15;69.92
44839;BME280;30576;42.098;24.876;2023-05-19T00:12:22;99700.97;;;15.27;69.35
44839;BME280;30576;42.098;24.876;2023-05-19T00:14:48;99690.50;;;15.47;69.33
44839;BME280;30576;42.098;24.876;2023-05-19T00:17:13;99691.44;;;15.46;69.21
44839;BME280;30576;42.098;24.876;2023-05-19T00:19:41;99673.50;;;15.28;68.87
44839;BME280;30576;42.098;24.876;2023-05-19T00:22:09;99683.06;;;15.32;69.11
44839;BME280;30576;42.098;24.876;2023-05-19T00:24:34;99647.81;;;15.27;68.54
44839;BME280;30576;42.098;24.876;2023-05-19T00:27:00;99659.69;;;15.16;68.53
44839;BME280;30576;42.098;24.876;2023-05-19T00:29:25;99657.97;;;15.15;69.40
44839;BME280;30576;42.098;24.876;2023-05-19T00:31:51;99686.34;;;15.13;68.96
44839;BME280;30576;42.098;24.876;2023-05-19T00:34:16;99644.69;;;15.15;68.77
44839;BME280;30576;42.098;24.876;2023-05-19T00:36:42;99660.69;;;15.14;68.87
44839;BME280;30576;42.098;24.876;2023-05-19T00:39:07;99666.69;;;15.44;68.63
44839;BME280;30576;42.098;24.876;2023-05-19T00:41:33;99662.22;;;15.19;68.68
44839;BME280;30576;42.098;24.876;2023-05-19T00:43:58;99657.38;;;15.32;68.11
44839;BME280;30576;42.098;24.876;2023-05-19T00:46:24;99654.44;;;15.15;68.77
44839;BME280;30576;42.098;24.876;2023-05-19T00:48:49;99674.09;;;15.36;68.28
44839;BME280;30576;42.098;24.876;2023-05-19T00:51:15;99648.31;;;15.13;68.47
44839;BME280;30576;42.098;24.876;2023-05-19T00:53:41;99672.91;;;15.18;68.71
44839;BME280;30576;42.098;24.876;2023-05-19T00:56:08;99675.03;;;15.33;68.04
44839;BME280;30576;42.098;24.876;2023-05-19T00:58:35;99643.19;;;15.07;68.34
44839;BME280;30576;42.098;24.876;2023-05-19T01:01:00;99629.28;;;15.00;68.41
44839;BME280;30576;42.098;24.876;2023-05-19T01:03:32;99683.06;;;15.32;68.74
44839;BME280;30576;42.098;24.876;2023-05-19T01:06:02;99657.56;;;15.01;68.15
44839;BME280;30576;42.098;24.876;2023-05-19T01:08:35;99636.34;;;14.99;67.84
44839;BME280;30576;42.098;24.876;2023-05-19T01:11:02;99645.38;;;15.20;67.87
44839;BME280;30576;42.098;24.876;2023-05-19T01:13:27;99647.75;;;15.03;67.69
44839;BME280;30576;42.098;24.876;2023-05-19T01:27:35;99663.03;;;15.23;67.90
44839;BME280;30576;42.098;24.876;2023-05-19T01:30:16;99667.34;;;15.26;67.90
44839;BME280;30576;42.098;24.876;2023-05-19T01:32:49;99633.13;;;15.16;67.18
44839;BME280;30576;42.098;24.876;2023-05-19T01:35:17;99633.16;;;15.15;67.76
44839;BME280;30576;42.098;24.876;2023-05-19T01:37:44;99661.16;;;15.25;67.09
44839;BME280;30576;42.098;24.876;2023-05-19T01:40:11;99645.16;;;15.01;66.82
44839;BME280;30576;42.098;24.876;2023-05-19T01:42:38;99687.75;;;15.25;66.52
44839;BME280;30576;42.098;24.876;2023-05-19T01:45:05;99641.34;;;15.09;66.41
44839;BME280;30576;42.098;24.876;2023-05-19T01:47:35;99665.88;;;15.42;66.15
44839;BME280;30576;42.098;24.876;2023-05-19T01:50:05;99656.59;;;15.29;66.28
44839;BME280;30576;42.098;24.876;2023-05-19T01:52:31;99635.03;;;15.13;66.74
44839;BME280;30576;42.098;24.876;2023-05-19T01:54:56;99646.47;;;15.15;66.54
44839;BME280;30576;42.098;24.876;2023-05-19T02:00:17;99677.50;;;15.39;66.45
44839;BME280;30576;42.098;24.876;2023-05-19T02:05:35;99682.69;;;15.17;66.40
44839;BME280;30576;42.098;24.876;2023-05-19T02:08:13;99680.94;;;15.16;66.95
44839;BME280;30576;42.098;24.876;2023-05-19T02:10:44;99677.38;;;15.43;66.83
44839;BME280;30576;42.098;24.876;2023-05-19T02:13:15;99683.22;;;15.27;67.25
44839;BME280;30576;42.098;24.876;2023-05-19T02:15:43;99701.19;;;15.20;67.36
44839;BME280;30576;42.098;24.876;2023-05-19T02:18:10;99679.13;;;15.18;67.30
44839;BME280;30576;42.098;24.876;2023-05-19T02:20:37;99691.34;;;15.22;66.77
44839;BME280;30576;42.098;24.876;2023-05-19T02:23:03;99653.19;;;15.00;67.33
44839;BME280;30576;42.098;24.876;2023-05-19T02:25:29;99652.50;;;15.20;67.12
44839;BME280;30576;42.098;24.876;2023-05-19T02:27:56;99688.75;;;15.21;66.51
44839;BME280;30576;42.098;24.876;2023-05-19T02:30:22;99697.41;;;15.28;66.75
44839;BME280;30576;42.098;24.876;2023-05-19T02:32:48;99673.91;;;15.15;66.62
44839;BME280;30576;42.098;24.876;2023-05-19T02:35:14;99670.84;;;15.01;67.44
44839;BME280;30576;42.098;24.876;2023-05-19T02:37:39;99677.38;;;15.17;66.45
44839;BME280;30576;42.098;24.876;2023-05-19T02:40:05;99698.16;;;15.31;66.70
44839;BME280;30576;42.098;24.876;2023-05-19T02:42:31;99699.22;;;15.26;66.96
44839;BME280;30576;42.098;24.876;2023-05-19T02:44:56;99652.13;;;15.04;66.64
44839;BME280;30576;42.098;24.876;2023-05-19T02:47:22;99678.66;;;15.06;66.40
44839;BME280;30576;42.098;24.876;2023-05-19T02:49:47;99678.66;;;15.32;66.38
44839;BME280;30576;42.098;24.876;2023-05-19T02:52:13;99699.22;;;15.26;65.97
44839;BME280;30576;42.098;24.876;2023-05-19T02:54:38;99652.59;;;14.90;66.18
44839;BME280;30576;42.098;24.876;2023-05-19T02:57:04;99701.63;;;15.33;66.89
44839;BME280;30576;42.098;24.876;2023-05-19T02:59:29;99674.31;;;15.03;66.40
44839;BME280;30576;42.098;24.876;2023-05-19T03:01:59;99707.63;;;15.13;66.60
44839;BME280;30576;42.098;24.876;2023-05-19T03:04:26;99696.72;;;15.21;66.52
44839;BME280;30576;42.098;24.876;2023-05-19T03:06:51;99674.88;;;15.13;66.44
44839;BME280;30576;42.098;24.876;2023-05-19T03:09:18;99671.78;;;15.00;67.30
44839;BME280;30576;42.098;24.876;2023-05-19T03:11:44;99701.38;;;15.14;66.75
44839;BME280;30576;42.098;24.876;2023-05-19T03:14:09;99712.22;;;15.08;67.20
44839;BME280;30576;42.098;24.876;2023-05-19T03:16:34;99677.63;;;15.10;67.07
44839;BME280;30576;42.098;24.876;2023-05-19T03:19:00;99688.81;;;14.93;67.67
44839;BME280;30576;42.098;24.876;2023-05-19T03:21:26;99710.13;;;15.18;67.19
44839;BME280;30576;42.098;24.876;2023-05-19T03:23:52;99664.50;;;15.05;66.89
44839;BME280;30576;42.098;24.876;2023-05-19T03:26:18;99701.44;;;15.13;66.70
44839;BME280;30576;42.098;24.876;2023-05-19T03:28:44;99703.09;;;15.17;67.23
44839;BME280;30576;42.098;24.876;2023-05-19T03:31:09;99723.19;;;15.24;67.03
44839;BME280;30576;42.098;24.876;2023-05-19T03:33:35;99706.06;;;15.08;66.76
44839;BME280;30576;42.098;24.876;2023-05-19T03:36:00;99679.22;;;14.89;68.22
44839;BME280;30576;42.098;24.876;2023-05-19T03:38:26;99698.88;;;15.10;66.96
44839;BME280;30576;42.098;24.876;2023-05-19T03:40:51;99719.88;;;15.17;67.21
44839;BME280;30576;42.098;24.876;2023-05-19T03:43:17;99699.50;;;15.18;68.21
44839;BME280;30576;42.098;24.876;2023-05-19T03:45:43;99699.59;;;15.15;67.56
44839;BME280;30576;42.098;24.876;2023-05-19T03:48:09;99682.09;;;15.09;67.96
44839;BME280;30576;42.098;24.876;2023-05-19T03:50:34;99698.56;;;15.19;67.09
44839;BME280;30576;42.098;24.876;2023-05-19T03:53:02;99711.00;;;15.18;67.66
44839;BME280;30576;42.098;24.876;2023-05-19T03:55:27;99752.59;;;15.46;67.43
44839;BME280;30576;42.098;24.876;2023-05-19T03:57:55;99682.03;;;15.11;67.91
44839;BME280;30576;42.098;24.876;2023-05-19T04:00:21;99710.63;;;15.29;67.59
44839;BME280;30576;42.098;24.876;2023-05-19T04:02:47;99725.47;;;15.62;66.80
44839;BME280;30576;42.098;24.876;2023-05-19T04:05:13;99702.31;;;15.40;67.41
44839;BME280;30576;42.098;24.876;2023-05-19T04:07:38;99704.63;;;15.49;66.85
44839;BME280;30576;42.098;24.876;2023-05-19T04:10:04;99732.56;;;15.86;66.60
44839;BME280;30576;42.098;24.876;2023-05-19T04:12:30;99732.97;;;15.75;67.28
44839;BME280;30576;42.098;24.876;2023-05-19T04:14:56;99722.25;;;15.79;66.59
44839;BME280;30576;42.098;24.876;2023-05-19T04:17:21;99724.91;;;15.79;66.92
44839;BME280;30576;42.098;24.876;2023-05-19T04:19:50;99756.84;;;16.02;66.79
44839;BME280;30576;42.098;24.876;2023-05-19T04:22:16;99746.53;;;15.93;66.20
44839;BME280;30576;42.098;24.876;2023-05-19T04:24:41;99739.03;;;16.04;66.81
44839;BME280;30576;42.098;24.876;2023-05-19T04:27:07;99765.81;;;16.23;66.68
44839;BME280;30576;42.098;24.876;2023-05-19T04:29:36;99732.69;;;16.32;66.67
44839;BME280;30576;42.098;24.876;2023-05-19T04:32:01;99731.47;;;16.41;65.73
44839;BME280;30576;42.098;24.876;2023-05-19T04:34:33;99729.69;;;16.63;66.83
44839;BME280;30576;42.098;24.876;2023-05-19T04:36:59;99728.44;;;16.96;63.89
44839;BME280;30576;42.098;24.876;2023-05-19T04:39:25;99739.53;;;17.07;63.78
44839;BME280;30576;42.098;24.876;2023-05-19T04:41:50;99751.44;;;16.98;63.57
44839;BME280;30576;42.098;24.876;2023-05-19T04:44:18;99749.19;;;17.10;62.76
44839;BME280;30576;42.098;24.876;2023-05-19T04:46:43;99738.25;;;17.16;64.50
44839;BME280;30576;42.098;24.876;2023-05-19T04:49:09;99737.81;;;17.27;63.70
44839;BME280;30576;42.098;24.876;2023-05-19T04:51:37;99737.16;;;17.42;62.29
44839;BME280;30576;42.098;24.876;2023-05-19T04:54:06;99732.97;;;17.36;63.01
44839;BME280;30576;42.098;24.876;2023-05-19T04:56:31;99733.72;;;17.40;62.44
44839;BME280;30576;42.098;24.876;2023-05-19T04:58:57;99730.97;;;17.42;62.90
44839;BME280;30576;42.098;24.876;2023-05-19T05:01:22;99734.09;;;17.31;62.07
44839;BME280;30576;42.098;24.876;2023-05-19T05:03:50;99745.34;;;17.60;61.69
44839;BME280;30576;42.098;24.876;2023-05-19T05:06:19;99764.06;;;17.79;62.40
44839;BME280;30576;42.098;24.876;2023-05-19T05:08:46;99769.69;;;17.93;63.64
44839;BME280;30576;42.098;24.876;2023-05-19T05:11:11;99753.88;;;17.88;62.14
44839;BME280;30576;42.098;24.876;2023-05-19T05:13:37;99770.22;;;18.01;61.44
44839;BME280;30576;42.098;24.876;2023-05-19T05:16:03;99758.41;;;18.07;60.72
44839;BME280;30576;42.098;24.876;2023-05-19T05:18:32;99743.19;;;18.09;60.60
44839;BME280;30576;42.098;24.876;2023-05-19T05:20:57;99777.56;;;18.17;60.75
44839;BME280;30576;42.098;24.876;2023-05-19T05:23:23;99760.56;;;18.38;61.35
44839;BME280;30576;42.098;24.876;2023-05-19T05:25:49;99765.72;;;18.22;60.35
44839;BME280;30576;42.098;24.876;2023-05-19T05:28:15;99783.63;;;18.39;60.29
44839;BME280;30576;42.098;24.876;2023-05-19T05:30:40;99801.56;;;18.56;60.33
44839;BME280;30576;42.098;24.876;2023-05-19T05:33:07;99792.41;;;18.62;59.83
44839;BME280;30576;42.098;24.876;2023-05-19T05:35:33;99764.00;;;18.40;59.38
44839;BME280;30576;42.098;24.876;2023-05-19T05:37:58;99786.19;;;18.61;60.47
44839;BME280;30576;42.098;24.876;2023-05-19T05:40:25;99752.63;;;18.56;59.74
44839;BME280;30576;42.098;24.876;2023-05-19T05:42:51;99798.44;;;18.66;57.71
44839;BME280;30576;42.098;24.876;2023-05-19T05:45:21;99788.84;;;18.81;58.24
44839;BME280;30576;42.098;24.876;2023-05-19T05:47:46;99815.38;;;19.04;58.94
44839;BME280;30576;42.098;24.876;2023-05-19T05:50:12;99793.31;;;19.18;58.40
44839;BME280;30576;42.098;24.876;2023-05-19T05:52:39;99770.28;;;19.16;57.67
44839;BME280;30576;42.098;24.876;2023-05-19T05:55:06;99795.50;;;19.10;58.48
44839;BME280;30576;42.098;24.876;2023-05-19T05:57:31;99819.03;;;19.21;58.51
44839;BME280;30576;42.098;24.876;2023-05-19T05:59:59;99818.88;;;19.06;56.18
44839;BME280;30576;42.098;24.876;2023-05-19T06:02:25;99783.25;;;18.87;57.27
44839;BME280;30576;42.098;24.876;2023-05-19T06:04:51;99770.91;;;19.21;57.13
44839;BME280;30576;42.098;24.876;2023-05-19T06:07:18;99804.72;;;19.76;55.43
44839;BME280;30576;42.098;24.876;2023-05-19T06:09:44;99814.63;;;20.26;55.65
44839;BME280;30576;42.098;24.876;2023-05-19T06:12:09;99799.88;;;20.35;54.08
44839;BME280;30576;42.098;24.876;2023-05-19T06:14:35;99842.00;;;19.98;54.70
44839;BME280;30576;42.098;24.876;2023-05-19T06:17:01;99829.75;;;19.75;55.98
44839;BME280;30576;42.098;24.876;2023-05-19T06:19:26;99828.22;;;19.34;56.64
44839;BME280;30576;42.098;24.876;2023-05-19T06:21:52;99824.34;;;19.40;56.87
44839;BME280;30576;42.098;24.876;2023-05-19T06:24:17;99817.03;;;19.97;55.44
44839;BME280;30576;42.098;24.876;2023-05-19T06:26:43;99796.28;;;20.18;56.17
44839;BME280;30576;42.098;24.876;2023-05-19T06:29:08;99831.22;;;20.84;56.04
44839;BME280;30576;42.098;24.876;2023-05-19T06:31:34;99846.41;;;20.83;54.66
44839;BME280;30576;42.098;24.876;2023-05-19T06:33:59;99826.91;;;20.64;54.74
44839;BME280;30576;42.098;24.876;2023-05-19T06:36:25;99854.22;;;20.54;53.38
44839;BME280;30576;42.098;24.876;2023-05-19T06:38:50;99849.34;;;20.28;55.21
44839;BME280;30576;42.098;24.876;2023-05-19T06:41:16;99813.31;;;20.17;55.64
44839;BME280;30576;42.098;24.876;2023-05-19T06:43:42;99822.84;;;20.56;54.57
44839;BME280;30576;42.098;24.876;2023-05-19T06:46:07;99816.13;;;20.32;55.24
44839;BME280;30576;42.098;24.876;2023-05-19T06:48:33;99836.78;;;20.12;55.97
44839;BME280;30576;42.098;24.876;2023-05-19T06:50:58;99844.53;;;20.85;54.32
44839;BME280;30576;42.098;24.876;2023-05-19T06:53:24;99808.72;;;20.86;53.85
44839;BME280;30576;42.098;24.876;2023-05-19T06:55:49;99805.09;;;20.54;54.72
44839;BME280;30576;42.098;24.876;2023-05-19T06:58:15;99826.78;;;21.15;55.14
44839;BME280;30576;42.098;24.876;2023-05-19T07:00:41;99805.34;;;21.31;53.81
44839;BME280;30576;42.098;24.876;2023-05-19T07:03:07;99812.16;;;21.52;52.15
44839;BME280;30576;42.098;24.876;2023-05-19T07:05:33;99784.34;;;21.53;53.15
44839;BME280;30576;42.098;24.876;2023-05-19T07:07:58;99811.25;;;21.68;53.75
44839;BME280;30576;42.098;24.876;2023-05-19T07:10:23;99808.50;;;21.84;54.34
44839;BME280;30576;42.098;24.876;2023-05-19T07:12:49;99818.63;;;22.09;52.93
44839;BME280;30576;42.098;24.876;2023-05-19T07:15:14;99825.41;;;22.30;52.38
44839;BME280;30576;42.098;24.876;2023-05-19T07:17:40;99817.66;;;22.40;51.34
44839;BME280;30576;42.098;24.876;2023-05-19T07:20:06;99816.63;;;22.12;51.41
44839;BME280;30576;42.098;24.876;2023-05-19T07:22:34;99810.53;;;21.80;51.60
44839;BME280;30576;42.098;24.876;2023-05-19T07:25:00;99831.94;;;21.96;52.18
44839;BME280;30576;42.098;24.876;2023-05-19T07:27:26;99846.63;;;22.35;54.28
44839;BME280;30576;42.098;24.876;2023-05-19T07:29:52;99794.41;;;22.25;49.57
44839;BME280;30576;42.098;24.876;2023-05-19T07:32:17;99815.00;;;22.24;51.83
44839;BME280;30576;42.098;24.876;2023-05-19T07:34:42;99823.72;;;22.13;51.57
44839;BME280;30576;42.098;24.876;2023-05-19T07:37:08;99816.69;;;22.56;51.43
44839;BME280;30576;42.098;24.876;2023-05-19T07:39:34;99826.78;;;22.66;52.93
44839;BME280;30576;42.098;24.876;2023-05-19T07:42:00;99844.56;;;22.24;50.24
44839;BME280;30576;42.098;24.876;2023-05-19T07:44:26;99836.41;;;22.26;52.90
44839;BME280;30576;42.098;24.876;2023-05-19T07:46:52;99812.47;;;21.62;51.62
44839;BME280;30576;42.098;24.876;2023-05-19T07:49:18;99860.75;;;22.08;52.21
44839;BME280;30576;42.098;24.876;2023-05-19T07:51:43;99851.63;;;21.66;51.35
44839;BME280;30576;42.098;24.876;2023-05-19T07:54:09;99846.88;;;21.86;51.94
44839;BME280;30576;42.098;24.876;2023-05-19T07:56:34;99847.25;;;22.24;51.67
44839;BME280;30576;42.098;24.876;2023-05-19T07:59:00;99841.38;;;22.62;52.12
44839;BME280;30576;42.098;24.876;2023-05-19T08:01:25;99825.25;;;22.48;50.64
44839;BME280;30576;42.098;24.876;2023-05-19T08:03:51;99834.81;;;22.81;49.82
44839;BME280;30576;42.098;24.876;2023-05-19T08:06:16;99808.38;;;22.87;51.30
44839;BME280;30576;42.098;24.876;2023-05-19T08:08:42;99843.78;;;23.37;50.02
44839;BME280;30576;42.098;24.876;2023-05-19T08:11:07;99825.56;;;22.99;50.03
44839;BME280;30576;42.098;24.876;2023-05-19T08:13:33;99830.53;;;22.49;49.80
44839;BME280;30576;42.098;24.876;2023-05-19T08:15:59;99862.66;;;22.80;53.82
44839;BME280;30576;42.098;24.876;2023-05-19T08:18:25;99856.66;;;23.32;50.05
44839;BME280;30576;42.098;24.876;2023-05-19T08:20:51;99829.91;;;22.87;49.93
44839;BME280;30576;42.098;24.876;2023-05-19T08:23:16;99835.09;;;23.47;48.65
44839;BME280;30576;42.098;24.876;2023-05-19T08:25:42;99861.97;;;23.74;49.30
44839;BME280;30576;42.098;24.876;2023-05-19T08:28:08;99849.66;;;23.84;47.77
44839;BME280;30576;42.098;24.876;2023-05-19T08:30:33;99829.44;;;23.77;47.20
44839;BME280;30576;42.098;24.876;2023-05-19T08:32:59;99844.88;;;24.28;49.22
44839;BME280;30576;42.098;24.876;2023-05-19T08:35:24;99814.25;;;24.29;46.78
44839;BME280;30576;42.098;24.876;2023-05-19T08:37:50;99839.16;;;24.45;47.55
44839;BME280;30576;42.098;24.876;2023-05-19T08:40:16;99804.09;;;24.33;45.29
44839;BME280;30576;42.098;24.876;2023-05-19T08:42:46;99846.22;;;24.61;44.39
44839;BME280;30576;42.098;24.876;2023-05-19T08:45:11;99823.97;;;24.70;49.16
44839;BME280;30576;42.098;24.876;2023-05-19T08:47:39;99842.28;;;24.52;43.06
44839;BME280;30576;42.098;24.876;2023-05-19T08:50:06;99822.44;;;24.40;50.12
44839;BME280;30576;42.098;24.876;2023-05-19T08:52:50;99852.53;;;24.86;43.48
44839;BME280;30576;42.098;24.876;2023-05-19T08:57:55;99828.59;;;24.81;44.32
44839;BME280;30576;42.098;24.876;2023-05-19T09:00:20;99802.97;;;24.99;44.44
44839;BME280;30576;42.098;24.876;2023-05-19T09:02:48;99843.09;;;25.65;44.81
44839;BME280;30576;42.098;24.876;2023-05-19T09:05:16;99826.50;;;25.59;43.19
44839;BME280;30576;42.098;24.876;2023-05-19T09:07:42;99833.88;;;25.32;41.32
44839;BME280;30576;42.098;24.876;2023-05-19T09:10:08;99844.72;;;25.68;44.31
44839;BME280;30576;42.098;24.876;2023-05-19T09:12:38;99821.94;;;25.83;46.37
44839;BME280;30576;42.098;24.876;2023-05-19T09:15:05;99835.34;;;25.61;42.67
44839;BME280;30576;42.098;24.876;2023-05-19T09:17:32;99830.28;;;25.80;40.79
44839;BME280;30576;42.098;24.876;2023-05-19T09:20:03;99817.31;;;25.97;41.26
44839;BME280;30576;42.098;24.876;2023-05-19T09:22:45;99816.69;;;26.62;44.38
44839;BME280;30576;42.098;24.876;2023-05-19T09:25:21;99839.66;;;26.45;44.11
44839;BME280;30576;42.098;24.876;2023-05-19T09:27:47;99843.03;;;26.72;44.92
44839;BME280;30576;42.098;24.876;2023-05-19T09:30:14;99801.22;;;25.60;42.14
44839;BME280;30576;42.098;24.876;2023-05-19T09:32:42;99806.69;;;26.06;41.09
44839;BME280;30576;42.098;24.876;2023-05-19T09:35:07;99841.69;;;26.77;41.01
44839;BME280;30576;42.098;24.876;2023-05-19T09:37:33;99809.97;;;27.23;39.61
44839;BME280;30576;42.098;24.876;2023-05-19T09:39:58;99808.31;;;27.00;38.38
44839;BME280;30576;42.098;24.876;2023-05-19T09:42:25;99841.22;;;27.39;41.56
44839;BME280;30576;42.098;24.876;2023-05-19T09:45:04;99803.47;;;27.26;38.63
44839;BME280;30576;42.098;24.876;2023-05-19T09:47:37;99835.69;;;27.40;41.16
44839;BME280;30576;42.098;24.876;2023-05-19T09:50:04;99821.81;;;27.33;40.22
44839;BME280;30576;42.098;24.876;2023-05-19T09:52:33;99807.56;;;27.09;40.68
44839;BME280;30576;42.098;24.876;2023-05-19T09:54:59;99806.38;;;26.79;39.79
44839;BME280;30576;42.098;24.876;2023-05-19T09:57:32;99803.16;;;26.62;38.21
44839;BME280;30576;42.098;24.876;2023-05-19T10:00:01;99819.81;;;27.47;41.06
44839;BME280;30576;42.098;24.876;2023-05-19T10:02:32;99783.19;;;27.52;38.95
44839;BME280;30576;42.098;24.876;2023-05-19T10:04:59;99792.16;;;27.32;36.38
44839;BME280;30576;42.098;24.876;2023-05-19T10:07:25;99772.28;;;26.54;38.37
44839;BME280;30576;42.098;24.876;2023-05-19T10:09:51;99820.38;;;26.39;37.59
44839;BME280;30576;42.098;24.876;2023-05-19T10:12:19;99791.34;;;26.18;36.12
44839;BME280;30576;42.098;24.876;2023-05-19T10:14:46;99813.13;;;26.85;38.84
44839;BME280;30576;42.098;24.876;2023-05-19T10:17:13;99771.19;;;26.45;36.30
44839;BME280;30576;42.098;24.876;2023-05-19T10:19:39;99776.34;;;26.37;40.97
44839;BME280;30576;42.098;24.876;2023-05-19T10:22:05;99767.00;;;26.41;40.36
44839;BME280;30576;42.098;24.876;2023-05-19T10:24:30;99795.50;;;26.22;38.10
44839;BME280;30576;42.098;24.876;2023-05-19T10:27:07;99781.22;;;25.62;38.14
44839;BME280;30576;42.098;24.876;2023-05-19T10:29:36;99777.44;;;25.41;38.31
44839;BME280;30576;42.098;24.876;2023-05-19T10:32:09;99767.09;;;25.34;37.90
44839;BME280;30576;42.098;24.876;2023-05-19T10:34:52;99752.38;;;25.63;38.22
44839;BME280;30576;42.098;24.876;2023-05-19T10:39:57;99800.78;;;26.13;40.16
44839;BME280;30576;42.098;24.876;2023-05-19T10:42:43;99812.28;;;25.57;41.59
44839;BME280;30576;42.098;24.876;2023-05-19T10:45:16;99804.91;;;23.82;44.42
44839;BME280;30576;42.098;24.876;2023-05-19T10:47:43;99838.75;;;23.46;49.91
44839;BME280;30576;42.098;24.876;2023-05-19T10:50:09;99822.06;;;21.96;54.28
44839;BME280;30576;42.098;24.876;2023-05-19T10:52:39;99808.09;;;21.29;56.61
44839;BME280;30576;42.098;24.876;2023-05-19T10:55:08;99831.19;;;20.50;62.49
44839;BME280;30576;42.098;24.876;2023-05-19T10:57:53;99817.50;;;20.06;61.74
44839;BME280;30576;42.098;24.876;2023-05-19T11:00:28;99827.94;;;19.58;65.76
44839;BME280;30576;42.098;24.876;2023-05-19T11:03:17;99812.72;;;19.58;67.41
44839;BME280;30576;42.098;24.876;2023-05-19T11:05:47;99810.94;;;19.22;68.07
44839;BME280;30576;42.098;24.876;2023-05-19T11:08:30;99808.22;;;19.41;68.53
44839;BME280;30576;42.098;24.876;2023-05-19T11:11:14;99834.97;;;19.95;67.26
44839;BME280;30576;42.098;24.876;2023-05-19T11:13:45;99821.81;;;19.73;68.05
44839;BME280;30576;42.098;24.876;2023-05-19T11:16:11;99823.19;;;19.63;68.62
44839;BME280;30576;42.098;24.876;2023-05-19T11:18:36;99808.44;;;19.91;69.03
44839;BME280;30576;42.098;24.876;2023-05-19T11:21:02;99810.28;;;20.57;74.51
44839;BME280;30576;42.098;24.876;2023-05-19T11:23:32;99803.53;;;20.99;69.97
44839;BME280;30576;42.098;24.876;2023-05-19T11:26:00;99792.06;;;21.43;68.86
44839;BME280;30576;42.098;24.876;2023-05-19T11:28:26;99779.41;;;21.61;66.24
44839;BME280;30576;42.098;24.876;2023-05-19T11:30:55;99796.38;;;22.21;63.27
44839;BME280;30576;42.098;24.876;2023-05-19T11:33:21;99809.38;;;22.58;63.56
44839;BME280;30576;42.098;24.876;2023-05-19T11:35:52;99770.31;;;22.52;63.17
44839;BME280;30576;42.098;24.876;2023-05-19T11:38:19;99782.53;;;22.99;58.64
44839;BME280;30576;42.098;24.876;2023-05-19T11:40:45;99791.31;;;23.30;61.53
44839;BME280;30576;42.098;24.876;2023-05-19T11:43:12;99774.75;;;23.36;59.11
44839;BME280;30576;42.098;24.876;2023-05-19T11:45:38;99773.00;;;23.63;56.72
44839;BME280;30576;42.098;24.876;2023-05-19T11:48:03;99789.03;;;23.91;60.04
44839;BME280;30576;42.098;24.876;2023-05-19T11:50:32;99779.75;;;24.47;58.72
44839;BME280;30576;42.098;24.876;2023-05-19T11:52:59;99797.38;;;24.90;53.83
44839;BME280;30576;42.098;24.876;2023-05-19T11:55:25;99785.66;;;24.78;51.21
44839;BME280;30576;42.098;24.876;2023-05-19T12:00:21;99784.13;;;25.48;52.11
44839;BME280;30576;42.098;24.876;2023-05-19T12:02:47;99768.63;;;25.74;50.57
44839;BME280;30576;42.098;24.876;2023-05-19T12:05:23;99767.06;;;25.94;50.46
44839;BME280;30576;42.098;24.876;2023-05-19T12:07:50;99756.97;;;25.85;50.19
44839;BME280;30576;42.098;24.876;2023-05-19T12:10:27;99762.63;;;25.82;49.19
44839;BME280;30576;42.098;24.876;2023-05-19T12:12:53;99756.94;;;26.09;53.19
44839;BME280;30576;42.098;24.876;2023-05-19T12:15:20;99758.53;;;26.34;47.29
44839;BME280;30576;42.098;24.876;2023-05-19T12:17:50;99775.88;;;26.77;44.84
44839;BME280;30576;42.098;24.876;2023-05-19T12:20:17;99770.94;;;26.71;50.83
44839;BME280;30576;42.098;24.876;2023-05-19T12:22:43;99754.53;;;27.06;50.61
44839;BME280;30576;42.098;24.876;2023-05-19T12:25:10;99757.63;;;27.02;45.86
44839;BME280;30576;42.098;24.876;2023-05-19T12:27:35;99762.59;;;26.74;46.50
44839;BME280;30576;42.098;24.876;2023-05-19T12:30:04;99739.84;;;26.76;42.64
44839;BME280;30576;42.098;24.876;2023-05-19T12:32:32;99739.97;;;26.75;46.45
44839;BME280;30576;42.098;24.876;2023-05-19T12:35:02;99764.03;;;27.44;41.12
44839;BME280;30576;42.098;24.876;2023-05-19T12:37:30;99743.91;;;27.58;39.68
44839;BME280;30576;42.098;24.876;2023-05-19T12:39:57;99742.72;;;27.07;43.29
44839;BME280;30576;42.098;24.876;2023-05-19T12:42:26;99741.81;;;27.18;42.09
44839;BME280;30576;42.098;24.876;2023-05-19T12:44:59;99747.97;;;27.31;44.13
44839;BME280;30576;42.098;24.876;2023-05-19T12:47:33;99748.44;;;27.79;40.64
44839;BME280;30576;42.098;24.876;2023-05-19T12:52:26;99715.72;;;27.17;41.33
44839;BME280;30576;42.098;24.876;2023-05-19T12:55:00;99723.00;;;27.49;37.53
44839;BME280;30576;42.098;24.876;2023-05-19T12:57:27;99716.00;;;27.46;39.37
44839;BME280;30576;42.098;24.876;2023-05-19T12:59:59;99715.22;;;27.56;43.62
44839;BME280;30576;42.098;24.876;2023-05-19T13:02:25;99730.47;;;28.20;40.49
44839;BME280;30576;42.098;24.876;2023-05-19T13:04:50;99718.47;;;28.53;34.80
44839;BME280;30576;42.098;24.876;2023-05-19T13:07:19;99703.97;;;28.64;34.06
44839;BME280;30576;42.098;24.876;2023-05-19T13:09:44;99692.72;;;28.79;34.67
44839;BME280;30576;42.098;24.876;2023-05-19T13:12:10;99711.19;;;29.14;34.10
44839;BME280;30576;42.098;24.876;2023-05-19T13:14:35;99726.13;;;28.79;35.71
44839;BME280;30576;42.098;24.876;2023-05-19T13:17:01;99706.28;;;28.79;35.86